sensor_id;sensor_type;location;lat;lon;timestamp;P1;durP1;ratioP1;P2;durP2;ratioP2
9904;SDS011;4991;43.566;27.820;2023-04-21T00:00:02;15.03;;;5.60;;
9904;SDS011;4991;43.566;27.820;2023-04-21T00:02:32;11.43;;;5.57;;
9904;SDS011;4991;43.566;27.820;2023-04-21T00:04:58;15.37;;;5.37;;
9904;SDS011;4991;43.566;27.820;2023-04-21T00:07:24;15.10;;;6.27;;
9904;SDS011;4991;43.566;27.820;2023-04-21T00:09:49;17.40;;;5.57;;
9904;SDS011;4991;43.566;27.820;2023-04-21T00:12:15;20.50;;;6.33;;
9904;SDS011;4991;43.566;27.820;2023-04-21T00:14:41;19.73;;;6.10;;
9904;SDS011;4991;43.566;27.820;2023-04-21T00:17:06;11.90;;;5.73;;
9904;SDS011;4991;43.566;27.820;2023-04-21T00:19:32;11.77;;;5.60;;
9904;SDS011;4991;43.566;27.820;2023-04-21T00:21:59;12.53;;;5.10;;
9904;SDS011;4991;43.566;27.820;2023-04-21T00:24:25;13.17;;;5.30;;
9904;SDS011;4991;43.566;27.820;2023-04-21T00:26:51;21.13;;;5.93;;
9904;SDS011;4991;43.566;27.820;2023-04-21T00:29:17;11.40;;;5.57;;
9904;SDS011;4991;43.566;27.820;2023-04-21T00:31:42;26.67;;;5.80;;
9904;SDS011;4991;43.566;27.820;2023-04-21T00:34:08;16.23;;;5.53;;
9904;SDS011;4991;43.566;27.820;2023-04-21T00:36:34;16.47;;;5.57;;
9904;SDS011;4991;43.566;27.820;2023-04-21T00:39:00;14.53;;;5.60;;
9904;SDS011;4991;43.566;27.820;2023-04-21T00:41:26;15.23;;;6.47;;
9904;SDS011;4991;43.566;27.820;2023-04-21T00:43:59;17.23;;;6.60;;
9904;SDS011;4991;43.566;27.820;2023-04-21T00:46:26;13.60;;;6.33;;
9904;SDS011;4991;43.566;27.820;2023-04-21T00:48:52;10.93;;;5.63;;
9904;SDS011;4991;43.566;27.820;2023-04-21T00:51:17;20.63;;;6.23;;
9904;SDS011;4991;43.566;27.820;2023-04-21T00:53:43;13.17;;;6.17;;
9904;SDS011;4991;43.566;27.820;2023-04-21T00:56:10;14.23;;;6.13;;
9904;SDS011;4991;43.566;27.820;2023-04-21T00:58:39;16.83;;;6.00;;
9904;SDS011;4991;43.566;27.820;2023-04-21T01:01:06;11.90;;;5.57;;
9904;SDS011;4991;43.566;27.820;2023-04-21T01:03:32;15.70;;;6.47;;
9904;SDS011;4991;43.566;27.820;2023-04-21T01:05:59;15.87;;;6.33;;
9904;SDS011;4991;43.566;27.820;2023-04-21T01:08:25;21.47;;;6.67;;
9904;SDS011;4991;43.566;27.820;2023-04-21T01:10:51;14.07;;;6.17;;
9904;SDS011;4991;43.566;27.820;2023-04-21T01:13:19;10.80;;;5.70;;
9904;SDS011;4991;43.566;27.820;2023-04-21T01:15:46;25.20;;;6.23;;
9904;SDS011;4991;43.566;27.820;2023-04-21T01:18:12;16.10;;;6.13;;
9904;SDS011;4991;43.566;27.820;2023-04-21T01:20:38;20.33;;;6.43;;
9904;SDS011;4991;43.566;27.820;2023-04-21T01:23:04;12.97;;;5.23;;
9904;SDS011;4991;43.566;27.820;2023-04-21T01:25:31;12.70;;;5.10;;
9904;SDS011;4991;43.566;27.820;2023-04-21T01:27:57;20.47;;;5.47;;
9904;SDS011;4991;43.566;27.820;2023-04-21T01:30:23;13.43;;;5.97;;
9904;SDS011;4991;43.566;27.820;2023-04-21T01:32:49;18.17;;;5.50;;
9904;SDS011;4991;43.566;27.820;2023-04-21T01:35:14;23.27;;;6.00;;
9904;SDS011;4991;43.566;27.820;2023-04-21T01:37:40;18.50;;;5.50;;
9904;SDS011;4991;43.566;27.820;2023-04-21T01:40:06;18.10;;;5.47;;
9904;SDS011;4991;43.566;27.820;2023-04-21T01:42:34;15.83;;;5.07;;
9904;SDS011;4991;43.566;27.820;2023-04-21T01:45:01;15.90;;;6.03;;
9904;SDS011;4991;43.566;27.820;2023-04-21T01:47:27;15.13;;;5.47;;
9904;SDS011;4991;43.566;27.820;2023-04-21T01:49:53;12.67;;;4.87;;
9904;SDS011;4991;43.566;27.820;2023-04-21T01:52:19;19.40;;;5.83;;
9904;SDS011;4991;43.566;27.820;2023-04-21T01:54:45;16.17;;;6.07;;
9904;SDS011;4991;43.566;27.820;2023-04-21T01:57:10;17.23;;;5.67;;
9904;SDS011;4991;43.566;27.820;2023-04-21T01:59:36;17.90;;;5.73;;
9904;SDS011;4991;43.566;27.820;2023-04-21T02:02:02;15.43;;;5.50;;
9904;SDS011;4991;43.566;27.820;2023-04-21T02:04:27;17.83;;;6.37;;
9904;SDS011;4991;43.566;27.820;2023-04-21T02:06:53;13.17;;;5.43;;
9904;SDS011;4991;43.566;27.820;2023-04-21T02:09:18;14.40;;;5.50;;
9904;SDS011;4991;43.566;27.820;2023-04-21T02:11:44;16.20;;;5.70;;
9904;SDS011;4991;43.566;27.820;2023-04-21T02:14:10;12.37;;;5.13;;
9904;SDS011;4991;43.566;27.820;2023-04-21T02:16:35;17.83;;;5.87;;
9904;SDS011;4991;43.566;27.820;2023-04-21T02:19:01;21.50;;;5.87;;
9904;SDS011;4991;43.566;27.820;2023-04-21T02:21:27;15.90;;;5.20;;
9904;SDS011;4991;43.566;27.820;2023-04-21T02:23:53;12.70;;;5.03;;
9904;SDS011;4991;43.566;27.820;2023-04-21T02:26:18;14.73;;;5.80;;
9904;SDS011;4991;43.566;27.820;2023-04-21T02:28:45;12.80;;;6.00;;
9904;SDS011;4991;43.566;27.820;2023-04-21T02:31:11;11.50;;;5.30;;
9904;SDS011;4991;43.566;27.820;2023-04-21T02:33:36;13.80;;;5.40;;
9904;SDS011;4991;43.566;27.820;2023-04-21T02:36:02;14.63;;;5.83;;
9904;SDS011;4991;43.566;27.820;2023-04-21T02:38:28;15.53;;;5.53;;
9904;SDS011;4991;43.566;27.820;2023-04-21T02:40:55;23.70;;;5.00;;
9904;SDS011;4991;43.566;27.820;2023-04-21T02:43:21;14.47;;;5.17;;
9904;SDS011;4991;43.566;27.820;2023-04-21T02:45:46;19.43;;;6.17;;
9904;SDS011;4991;43.566;27.820;2023-04-21T02:48:12;16.33;;;5.83;;
9904;SDS011;4991;43.566;27.820;2023-04-21T02:50:37;18.00;;;5.37;;
9904;SDS011;4991;43.566;27.820;2023-04-21T02:53:04;11.60;;;5.60;;
9904;SDS011;4991;43.566;27.820;2023-04-21T02:55:30;17.70;;;6.17;;
9904;SDS011;4991;43.566;27.820;2023-04-21T02:57:56;16.80;;;6.10;;
9904;SDS011;4991;43.566;27.820;2023-04-21T03:00:21;16.07;;;6.20;;
9904;SDS011;4991;43.566;27.820;2023-04-21T03:02:47;20.40;;;6.50;;
9904;SDS011;4991;43.566;27.820;2023-04-21T03:05:12;21.57;;;6.53;;
9904;SDS011;4991;43.566;27.820;2023-04-21T03:07:38;28.13;;;7.33;;
9904;SDS011;4991;43.566;27.820;2023-04-21T03:10:04;28.40;;;9.00;;
9904;SDS011;4991;43.566;27.820;2023-04-21T03:12:30;20.67;;;9.07;;
9904;SDS011;4991;43.566;27.820;2023-04-21T03:14:56;30.23;;;9.53;;
9904;SDS011;4991;43.566;27.820;2023-04-21T03:17:23;22.63;;;8.73;;
9904;SDS011;4991;43.566;27.820;2023-04-21T03:19:49;24.90;;;9.17;;
9904;SDS011;4991;43.566;27.820;2023-04-21T03:22:14;19.67;;;7.33;;
9904;SDS011;4991;43.566;27.820;2023-04-21T03:24:40;19.33;;;7.27;;
9904;SDS011;4991;43.566;27.820;2023-04-21T03:27:05;19.13;;;7.43;;
9904;SDS011;4991;43.566;27.820;2023-04-21T03:29:31;19.30;;;8.40;;
9904;SDS011;4991;43.566;27.820;2023-04-21T03:31:57;13.97;;;6.40;;
9904;SDS011;4991;43.566;27.820;2023-04-21T03:34:22;14.97;;;6.03;;
9904;SDS011;4991;43.566;27.820;2023-04-21T03:36:48;16.77;;;7.40;;
9904;SDS011;4991;43.566;27.820;2023-04-21T03:39:13;15.87;;;6.57;;
9904;SDS011;4991;43.566;27.820;2023-04-21T03:41:39;12.50;;;6.17;;
9904;SDS011;4991;43.566;27.820;2023-04-21T03:44:05;13.07;;;5.00;;
9904;SDS011;4991;43.566;27.820;2023-04-21T03:46:31;13.47;;;4.83;;
9904;SDS011;4991;43.566;27.820;2023-04-21T03:48:57;11.97;;;5.90;;
9904;SDS011;4991;43.566;27.820;2023-04-21T03:51:22;12.13;;;4.27;;
9904;SDS011;4991;43.566;27.820;2023-04-21T03:53:48;8.93;;;4.07;;
9904;SDS011;4991;43.566;27.820;2023-04-21T03:56:13;8.93;;;4.13;;
9904;SDS011;4991;43.566;27.820;2023-04-21T03:58:39;10.37;;;4.30;;
9904;SDS011;4991;43.566;27.820;2023-04-21T04:01:05;7.87;;;3.60;;
9904;SDS011;4991;43.566;27.820;2023-04-21T04:03:31;7.23;;;3.33;;
9904;SDS011;4991;43.566;27.820;2023-04-21T04:05:57;16.40;;;4.97;;
9904;SDS011;4991;43.566;27.820;2023-04-21T04:08:23;9.97;;;3.83;;
9904;SDS011;4991;43.566;27.820;2023-04-21T04:10:49;16.17;;;5.33;;
9904;SDS011;4991;43.566;27.820;2023-04-21T04:13:15;16.37;;;4.50;;
9904;SDS011;4991;43.566;27.820;2023-04-21T04:15:41;11.57;;;4.00;;
9904;SDS011;4991;43.566;27.820;2023-04-21T04:18:06;8.57;;;4.33;;
9904;SDS011;4991;43.566;27.820;2023-04-21T04:20:32;12.50;;;4.17;;
9904;SDS011;4991;43.566;27.820;2023-04-21T04:22:58;6.30;;;3.73;;
9904;SDS011;4991;43.566;27.820;2023-04-21T04:25:23;13.00;;;5.03;;
9904;SDS011;4991;43.566;27.820;2023-04-21T04:27:49;10.30;;;4.80;;
9904;SDS011;4991;43.566;27.820;2023-04-21T04:30:15;8.97;;;5.27;;
9904;SDS011;4991;43.566;27.820;2023-04-21T04:32:41;11.77;;;5.63;;
9904;SDS011;4991;43.566;27.820;2023-04-21T04:35:07;12.23;;;4.73;;
9904;SDS011;4991;43.566;27.820;2023-04-21T04:37:37;9.37;;;3.47;;
9904;SDS011;4991;43.566;27.820;2023-04-21T04:40:04;4.17;;;3.07;;
9904;SDS011;4991;43.566;27.820;2023-04-21T04:42:31;5.40;;;3.10;;
9904;SDS011;4991;43.566;27.820;2023-04-21T04:44:57;5.33;;;4.70;;
9904;SDS011;4991;43.566;27.820;2023-04-21T04:47:23;8.67;;;4.70;;
9904;SDS011;4991;43.566;27.820;2023-04-21T04:49:50;11.10;;;3.80;;
9904;SDS011;4991;43.566;27.820;2023-04-21T04:52:15;5.37;;;3.77;;
9904;SDS011;4991;43.566;27.820;2023-04-21T04:54:41;6.73;;;3.97;;
9904;SDS011;4991;43.566;27.820;2023-04-21T04:57:06;6.47;;;3.60;;
9904;SDS011;4991;43.566;27.820;2023-04-21T04:59:32;7.03;;;4.30;;
9904;SDS011;4991;43.566;27.820;2023-04-21T05:01:58;4.93;;;3.77;;
9904;SDS011;4991;43.566;27.820;2023-04-21T05:04:23;6.40;;;4.40;;
9904;SDS011;4991;43.566;27.820;2023-04-21T05:06:49;5.67;;;3.43;;
9904;SDS011;4991;43.566;27.820;2023-04-21T05:09:16;2.00;;;1.60;;
9904;SDS011;4991;43.566;27.820;2023-04-21T05:11:42;7.27;;;2.30;;
9904;SDS011;4991;43.566;27.820;2023-04-21T05:14:07;4.37;;;2.80;;
9904;SDS011;4991;43.566;27.820;2023-04-21T05:16:33;3.53;;;1.70;;
9904;SDS011;4991;43.566;27.820;2023-04-21T05:19:02;2.30;;;2.00;;
9904;SDS011;4991;43.566;27.820;2023-04-21T05:21:29;4.07;;;2.20;;
9904;SDS011;4991;43.566;27.820;2023-04-21T05:23:56;4.97;;;2.90;;
9904;SDS011;4991;43.566;27.820;2023-04-21T05:26:23;3.77;;;1.93;;
9904;SDS011;4991;43.566;27.820;2023-04-21T05:28:53;2.00;;;1.80;;
9904;SDS011;4991;43.566;27.820;2023-04-21T05:31:20;6.33;;;2.10;;
9904;SDS011;4991;43.566;27.820;2023-04-21T05:33:46;3.30;;;2.37;;
9904;SDS011;4991;43.566;27.820;2023-04-21T05:36:12;4.93;;;2.03;;
9904;SDS011;4991;43.566;27.820;2023-04-21T05:38:37;5.73;;;2.63;;
9904;SDS011;4991;43.566;27.820;2023-04-21T05:41:03;4.97;;;2.10;;
9904;SDS011;4991;43.566;27.820;2023-04-21T05:43:29;4.87;;;2.60;;
9904;SDS011;4991;43.566;27.820;2023-04-21T05:45:59;9.13;;;2.80;;
9904;SDS011;4991;43.566;27.820;2023-04-21T05:48:25;3.63;;;1.87;;
9904;SDS011;4991;43.566;27.820;2023-04-21T05:50:50;5.00;;;2.30;;
9904;SDS011;4991;43.566;27.820;2023-04-21T05:53:16;5.53;;;2.73;;
9904;SDS011;4991;43.566;27.820;2023-04-21T05:55:42;7.40;;;3.40;;
9904;SDS011;4991;43.566;27.820;2023-04-21T05:58:09;7.07;;;3.10;;
9904;SDS011;4991;43.566;27.820;2023-04-21T06:00:34;5.13;;;2.80;;
9904;SDS011;4991;43.566;27.820;2023-04-21T06:03:01;6.93;;;3.07;;
9904;SDS011;4991;43.566;27.820;2023-04-21T06:05:27;3.27;;;2.33;;
9904;SDS011;4991;43.566;27.820;2023-04-21T06:07:53;3.57;;;2.80;;
9904;SDS011;4991;43.566;27.820;2023-04-21T06:10:19;10.70;;;3.10;;
9904;SDS011;4991;43.566;27.820;2023-04-21T06:12:45;0.10;;;0.10;;
9904;SDS011;4991;43.566;27.820;2023-04-21T06:15:11;0.10;;;0.10;;
9904;SDS011;4991;43.566;27.820;2023-04-21T06:17:36;0.10;;;0.10;;
9904;SDS011;4991;43.566;27.820;2023-04-21T06:20:02;0.10;;;0.10;;
9904;SDS011;4991;43.566;27.820;2023-04-21T06:22:28;0.10;;;0.10;;
9904;SDS011;4991;43.566;27.820;2023-04-21T06:24:53;0.10;;;0.10;;
9904;SDS011;4991;43.566;27.820;2023-04-21T06:27:19;0.10;;;0.10;;
9904;SDS011;4991;43.566;27.820;2023-04-21T06:29:45;0.00;;;0.00;;
9904;SDS011;4991;43.566;27.820;2023-04-21T06:32:10;0.10;;;0.10;;
9904;SDS011;4991;43.566;27.820;2023-04-21T06:34:36;0.10;;;0.10;;
9904;SDS011;4991;43.566;27.820;2023-04-21T06:37:03;0.10;;;0.10;;
9904;SDS011;4991;43.566;27.820;2023-04-21T06:39:29;0.03;;;0.03;;
9904;SDS011;4991;43.566;27.820;2023-04-21T06:41:54;0.10;;;0.10;;
9904;SDS011;4991;43.566;27.820;2023-04-21T06:44:22;0.10;;;0.10;;
9904;SDS011;4991;43.566;27.820;2023-04-21T06:46:48;0.10;;;0.10;;
9904;SDS011;4991;43.566;27.820;2023-04-21T06:49:13;0.10;;;0.10;;
9904;SDS011;4991;43.566;27.820;2023-04-21T06:51:39;0.10;;;0.10;;
9904;SDS011;4991;43.566;27.820;2023-04-21T06:54:05;0.10;;;0.10;;
9904;SDS011;4991;43.566;27.820;2023-04-21T06:56:31;0.10;;;0.10;;
9904;SDS011;4991;43.566;27.820;2023-04-21T06:58:57;0.10;;;0.10;;
9904;SDS011;4991;43.566;27.820;2023-04-21T07:01:22;0.10;;;0.10;;
9904;SDS011;4991;43.566;27.820;2023-04-21T07:03:48;0.10;;;0.10;;
9904;SDS011;4991;43.566;27.820;2023-04-21T07:06:15;0.10;;;0.10;;
9904;SDS011;4991;43.566;27.820;2023-04-21T07:08:40;0.10;;;0.10;;
9904;SDS011;4991;43.566;27.820;2023-04-21T07:11:06;0.10;;;0.10;;
9904;SDS011;4991;43.566;27.820;2023-04-21T07:13:31;0.10;;;0.10;;
9904;SDS011;4991;43.566;27.820;2023-04-21T07:15:57;0.10;;;0.10;;
9904;SDS011;4991;43.566;27.820;2023-04-21T07:18:23;0.10;;;0.10;;
9904;SDS011;4991;43.566;27.820;2023-04-21T07:20:49;0.10;;;0.10;;
9904;SDS011;4991;43.566;27.820;2023-04-21T07:23:15;0.10;;;0.10;;
9904;SDS011;4991;43.566;27.820;2023-04-21T07:25:41;0.10;;;0.10;;
9904;SDS011;4991;43.566;27.820;2023-04-21T07:28:07;0.10;;;0.10;;
9904;SDS011;4991;43.566;27.820;2023-04-21T07:30:32;0.10;;;0.10;;
9904;SDS011;4991;43.566;27.820;2023-04-21T07:32:58;0.10;;;0.10;;
9904;SDS011;4991;43.566;27.820;2023-04-21T07:35:24;0.10;;;0.10;;
9904;SDS011;4991;43.566;27.820;2023-04-21T07:37:50;0.20;;;0.20;;
9904;SDS011;4991;43.566;27.820;2023-04-21T07:40:15;0.10;;;0.10;;
9904;SDS011;4991;43.566;27.820;2023-04-21T07:42:41;0.10;;;0.10;;
9904;SDS011;4991;43.566;27.820;2023-04-21T07:45:07;0.17;;;0.17;;
9904;SDS011;4991;43.566;27.820;2023-04-21T07:47:33;0.20;;;0.20;;
9904;SDS011;4991;43.566;27.820;2023-04-21T07:49:59;0.17;;;0.17;;
9904;SDS011;4991;43.566;27.820;2023-04-21T07:52:24;0.20;;;0.20;;
9904;SDS011;4991;43.566;27.820;2023-04-21T07:54:50;0.20;;;0.20;;
9904;SDS011;4991;43.566;27.820;2023-04-21T07:57:16;0.20;;;0.20;;
9904;SDS011;4991;43.566;27.820;2023-04-21T07:59:42;0.20;;;0.20;;
9904;SDS011;4991;43.566;27.820;2023-04-21T08:02:08;0.20;;;0.20;;
9904;SDS011;4991;43.566;27.820;2023-04-21T08:04:33;0.20;;;0.20;;
9904;SDS011;4991;43.566;27.820;2023-04-21T08:06:59;0.20;;;0.20;;
9904;SDS011;4991;43.566;27.820;2023-04-21T08:09:25;0.20;;;0.20;;
9904;SDS011;4991;43.566;27.820;2023-04-21T08:11:51;0.20;;;0.20;;
9904;SDS011;4991;43.566;27.820;2023-04-21T08:14:18;0.20;;;0.20;;
9904;SDS011;4991;43.566;27.820;2023-04-21T08:16:43;0.20;;;0.20;;
9904;SDS011;4991;43.566;27.820;2023-04-21T08:19:09;0.20;;;0.20;;
9904;SDS011;4991;43.566;27.820;2023-04-21T08:21:35;0.20;;;0.20;;
9904;SDS011;4991;43.566;27.820;2023-04-21T08:24:01;0.20;;;0.20;;
9904;SDS011;4991;43.566;27.820;2023-04-21T08:26:26;0.20;;;0.20;;
9904;SDS011;4991;43.566;27.820;2023-04-21T08:28:54;0.20;;;0.20;;
9904;SDS011;4991;43.566;27.820;2023-04-21T08:31:21;0.10;;;0.10;;
9904;SDS011;4991;43.566;27.820;2023-04-21T08:33:47;0.20;;;0.20;;
9904;SDS011;4991;43.566;27.820;2023-04-21T08:36:14;0.20;;;0.20;;
9904;SDS011;4991;43.566;27.820;2023-04-21T08:38:41;0.20;;;0.20;;
9904;SDS011;4991;43.566;27.820;2023-04-21T08:41:08;0.27;;;0.27;;
9904;SDS011;4991;43.566;27.820;2023-04-21T08:43:35;0.20;;;0.20;;
9904;SDS011;4991;43.566;27.820;2023-04-21T08:46:01;0.20;;;0.20;;
9904;SDS011;4991;43.566;27.820;2023-04-21T08:48:34;0.20;;;0.20;;
9904;SDS011;4991;43.566;27.820;2023-04-21T08:51:00;0.20;;;0.20;;
9904;SDS011;4991;43.566;27.820;2023-04-21T08:53:27;0.20;;;0.20;;
9904;SDS011;4991;43.566;27.820;2023-04-21T08:55:56;0.20;;;0.20;;
9904;SDS011;4991;43.566;27.820;2023-04-21T08:58:22;0.20;;;0.20;;
9904;SDS011;4991;43.566;27.820;2023-04-21T09:00:48;0.20;;;0.20;;
9904;SDS011;4991;43.566;27.820;2023-04-21T09:03:24;0.20;;;0.20;;
9904;SDS011;4991;43.566;27.820;2023-04-21T09:05:58;0.20;;;0.20;;
9904;SDS011;4991;43.566;27.820;2023-04-21T09:08:25;0.20;;;0.20;;
9904;SDS011;4991;43.566;27.820;2023-04-21T09:10:53;0.20;;;0.20;;
9904;SDS011;4991;43.566;27.820;2023-04-21T09:13:19;0.20;;;0.20;;
9904;SDS011;4991;43.566;27.820;2023-04-21T09:15:48;0.20;;;0.20;;
9904;SDS011;4991;43.566;27.820;2023-04-21T09:18:19;0.20;;;0.20;;
9904;SDS011;4991;43.566;27.820;2023-04-21T09:20:49;0.20;;;0.20;;
9904;SDS011;4991;43.566;27.820;2023-04-21T09:23:16;0.20;;;0.20;;
9904;SDS011;4991;43.566;27.820;2023-04-21T09:25:42;0.20;;;0.20;;
9904;SDS011;4991;43.566;27.820;2023-04-21T09:28:09;0.10;;;0.10;;
9904;SDS011;4991;43.566;27.820;2023-04-21T09:30:39;0.20;;;0.20;;
9904;SDS011;4991;43.566;27.820;2023-04-21T09:33:06;3.33;;;3.13;;
9904;SDS011;4991;43.566;27.820;2023-04-21T09:35:33;0.20;;;0.20;;
9904;SDS011;4991;43.566;27.820;2023-04-21T09:38:00;0.20;;;0.20;;
9904;SDS011;4991;43.566;27.820;2023-04-21T09:40:28;0.20;;;0.20;;
9904;SDS011;4991;43.566;27.820;2023-04-21T09:42:54;0.20;;;0.20;;
9904;SDS011;4991;43.566;27.820;2023-04-21T09:45:22;0.20;;;0.20;;
9904;SDS011;4991;43.566;27.820;2023-04-21T09:47:50;0.30;;;0.30;;
9904;SDS011;4991;43.566;27.820;2023-04-21T09:50:21;0.20;;;0.20;;
9904;SDS011;4991;43.566;27.820;2023-04-21T09:52:49;0.20;;;0.20;;
9904;SDS011;4991;43.566;27.820;2023-04-21T09:55:15;0.30;;;0.30;;
9904;SDS011;4991;43.566;27.820;2023-04-21T09:57:44;1.27;;;1.27;;
9904;SDS011;4991;43.566;27.820;2023-04-21T10:00:13;0.20;;;0.20;;
9904;SDS011;4991;43.566;27.820;2023-04-21T10:02:48;0.23;;;0.23;;
9904;SDS011;4991;43.566;27.820;2023-04-21T10:05:15;0.73;;;0.73;;
9904;SDS011;4991;43.566;27.820;2023-04-21T10:07:41;0.20;;;0.20;;
9904;SDS011;4991;43.566;27.820;2023-04-21T10:12:43;0.20;;;0.20;;
9904;SDS011;4991;43.566;27.820;2023-04-21T10:15:27;0.20;;;0.20;;
9904;SDS011;4991;43.566;27.820;2023-04-21T10:18:18;0.20;;;0.20;;
9904;SDS011;4991;43.566;27.820;2023-04-21T10:20:53;0.20;;;0.20;;
9904;SDS011;4991;43.566;27.820;2023-04-21T10:23:28;1.43;;;1.43;;
9904;SDS011;4991;43.566;27.820;2023-04-21T10:26:02;1.60;;;1.60;;
9904;SDS011;4991;43.566;27.820;2023-04-21T10:39:25;0.20;;;0.20;;
9904;SDS011;4991;43.566;27.820;2023-04-21T10:44:41;0.20;;;0.20;;
9904;SDS011;4991;43.566;27.820;2023-04-21T10:47:07;11.90;;;5.10;;
9904;SDS011;4991;43.566;27.820;2023-04-21T10:49:36;11.77;;;3.90;;
9904;SDS011;4991;43.566;27.820;2023-04-21T10:52:04;11.00;;;4.17;;
9904;SDS011;4991;43.566;27.820;2023-04-21T10:57:06;6.73;;;3.03;;
9904;SDS011;4991;43.566;27.820;2023-04-21T10:59:34;10.87;;;3.93;;
9904;SDS011;4991;43.566;27.820;2023-04-21T11:02:10;9.37;;;3.40;;
9904;SDS011;4991;43.566;27.820;2023-04-21T11:04:36;5.90;;;2.33;;
9904;SDS011;4991;43.566;27.820;2023-04-21T11:07:08;10.77;;;4.17;;
9904;SDS011;4991;43.566;27.820;2023-04-21T11:09:34;9.03;;;3.17;;
9904;SDS011;4991;43.566;27.820;2023-04-21T11:12:02;5.83;;;2.83;;
9904;SDS011;4991;43.566;27.820;2023-04-21T11:14:31;11.47;;;4.00;;
9904;SDS011;4991;43.566;27.820;2023-04-21T11:16:59;11.97;;;3.57;;
9904;SDS011;4991;43.566;27.820;2023-04-21T11:19:26;11.20;;;3.73;;
9904;SDS011;4991;43.566;27.820;2023-04-21T11:21:52;12.13;;;4.13;;
9904;SDS011;4991;43.566;27.820;2023-04-21T11:24:19;12.97;;;4.63;;
9904;SDS011;4991;43.566;27.820;2023-04-21T11:26:46;11.23;;;3.57;;
9904;SDS011;4991;43.566;27.820;2023-04-21T11:29:11;9.43;;;4.07;;
9904;SDS011;4991;43.566;27.820;2023-04-21T11:31:40;8.40;;;4.13;;
9904;SDS011;4991;43.566;27.820;2023-04-21T11:34:08;5.03;;;2.67;;
9904;SDS011;4991;43.566;27.820;2023-04-21T11:36:40;16.03;;;3.63;;
9904;SDS011;4991;43.566;27.820;2023-04-21T11:39:08;7.87;;;3.03;;
9904;SDS011;4991;43.566;27.820;2023-04-21T11:41:40;7.20;;;2.90;;
9904;SDS011;4991;43.566;27.820;2023-04-21T11:44:07;6.33;;;2.80;;
9904;SDS011;4991;43.566;27.820;2023-04-21T11:46:34;5.33;;;2.70;;
9904;SDS011;4991;43.566;27.820;2023-04-21T11:49:04;5.40;;;2.50;;
9904;SDS011;4991;43.566;27.820;2023-04-21T11:51:34;7.00;;;2.47;;
9904;SDS011;4991;43.566;27.820;2023-04-21T11:54:04;6.43;;;2.37;;
9904;SDS011;4991;43.566;27.820;2023-04-21T11:56:37;10.77;;;2.70;;
9904;SDS011;4991;43.566;27.820;2023-04-21T11:59:06;7.77;;;3.57;;
9904;SDS011;4991;43.566;27.820;2023-04-21T12:01:48;13.10;;;4.23;;
9904;SDS011;4991;43.566;27.820;2023-04-21T12:04:20;10.37;;;3.53;;
9904;SDS011;4991;43.566;27.820;2023-04-21T12:07:08;8.33;;;3.37;;
9904;SDS011;4991;43.566;27.820;2023-04-21T12:09:34;10.73;;;3.83;;
9904;SDS011;4991;43.566;27.820;2023-04-21T12:12:00;11.97;;;3.20;;
9904;SDS011;4991;43.566;27.820;2023-04-21T12:14:31;8.03;;;3.30;;
9904;SDS011;4991;43.566;27.820;2023-04-21T12:16:57;11.93;;;3.27;;
9904;SDS011;4991;43.566;27.820;2023-04-21T12:19:36;5.67;;;2.73;;
9904;SDS011;4991;43.566;27.820;2023-04-21T12:22:06;10.17;;;3.47;;
9904;SDS011;4991;43.566;27.820;2023-04-21T12:24:34;10.13;;;3.33;;
9904;SDS011;4991;43.566;27.820;2023-04-21T12:26:59;10.03;;;3.20;;
9904;SDS011;4991;43.566;27.820;2023-04-21T12:29:26;10.77;;;4.80;;
9904;SDS011;4991;43.566;27.820;2023-04-21T12:31:52;10.47;;;3.97;;
9904;SDS011;4991;43.566;27.820;2023-04-21T12:34:17;8.80;;;3.57;;
9904;SDS011;4991;43.566;27.820;2023-04-21T12:36:43;6.37;;;2.37;;
9904;SDS011;4991;43.566;27.820;2023-04-21T12:39:08;7.83;;;3.13;;
9904;SDS011;4991;43.566;27.820;2023-04-21T12:41:35;18.13;;;4.47;;
9904;SDS011;4991;43.566;27.820;2023-04-21T12:44:00;12.03;;;3.93;;
9904;SDS011;4991;43.566;27.820;2023-04-21T12:46:26;8.67;;;3.27;;
9904;SDS011;4991;43.566;27.820;2023-04-21T12:48:52;9.70;;;3.50;;
9904;SDS011;4991;43.566;27.820;2023-04-21T12:51:20;6.93;;;3.10;;
9904;SDS011;4991;43.566;27.820;2023-04-21T12:53:45;7.90;;;3.10;;
9904;SDS011;4991;43.566;27.820;2023-04-21T12:56:11;14.10;;;4.10;;
9904;SDS011;4991;43.566;27.820;2023-04-21T12:58:36;10.07;;;3.47;;
9904;SDS011;4991;43.566;27.820;2023-04-21T13:01:02;13.13;;;3.70;;
9904;SDS011;4991;43.566;27.820;2023-04-21T13:03:28;13.03;;;3.40;;
9904;SDS011;4991;43.566;27.820;2023-04-21T13:05:53;13.70;;;3.53;;
9904;SDS011;4991;43.566;27.820;2023-04-21T13:08:20;10.77;;;3.60;;
9904;SDS011;4991;43.566;27.820;2023-04-21T13:10:46;11.43;;;3.53;;
9904;SDS011;4991;43.566;27.820;2023-04-21T13:13:12;9.67;;;3.43;;
9904;SDS011;4991;43.566;27.820;2023-04-21T13:15:37;11.10;;;3.37;;
9904;SDS011;4991;43.566;27.820;2023-04-21T13:18:03;9.97;;;3.43;;
9904;SDS011;4991;43.566;27.820;2023-04-21T13:20:29;15.07;;;4.83;;
9904;SDS011;4991;43.566;27.820;2023-04-21T13:22:55;8.73;;;3.40;;
9904;SDS011;4991;43.566;27.820;2023-04-21T13:25:21;13.80;;;3.45;;
9904;SDS011;4991;43.566;27.820;2023-04-21T13:27:46;10.07;;;4.20;;
9904;SDS011;4991;43.566;27.820;2023-04-21T13:30:12;10.07;;;2.63;;
9904;SDS011;4991;43.566;27.820;2023-04-21T13:32:39;11.37;;;4.10;;
9904;SDS011;4991;43.566;27.820;2023-04-21T13:35:05;11.03;;;4.43;;
9904;SDS011;4991;43.566;27.820;2023-04-21T13:37:36;5.23;;;2.57;;
9904;SDS011;4991;43.566;27.820;2023-04-21T13:40:03;4.77;;;2.67;;
9904;SDS011;4991;43.566;27.820;2023-04-21T13:42:30;9.97;;;2.90;;
9904;SDS011;4991;43.566;27.820;2023-04-21T13:44:56;11.47;;;4.80;;
9904;SDS011;4991;43.566;27.820;2023-04-21T13:47:22;10.97;;;3.00;;
9904;SDS011;4991;43.566;27.820;2023-04-21T13:49:48;15.87;;;4.23;;
9904;SDS011;4991;43.566;27.820;2023-04-21T13:52:14;6.03;;;3.03;;
9904;SDS011;4991;43.566;27.820;2023-04-21T13:54:39;18.50;;;3.70;;
9904;SDS011;4991;43.566;27.820;2023-04-21T13:57:05;14.53;;;4.13;;
9904;SDS011;4991;43.566;27.820;2023-04-21T13:59:31;14.07;;;3.93;;
9904;SDS011;4991;43.566;27.820;2023-04-21T14:01:56;9.43;;;4.03;;
9904;SDS011;4991;43.566;27.820;2023-04-21T14:04:22;8.43;;;3.43;;
9904;SDS011;4991;43.566;27.820;2023-04-21T14:06:48;14.43;;;4.30;;
9904;SDS011;4991;43.566;27.820;2023-04-21T14:09:14;14.30;;;4.90;;
9904;SDS011;4991;43.566;27.820;2023-04-21T14:11:40;11.90;;;4.60;;
9904;SDS011;4991;43.566;27.820;2023-04-21T14:14:06;13.97;;;4.10;;
9904;SDS011;4991;43.566;27.820;2023-04-21T14:16:31;13.10;;;3.70;;
9904;SDS011;4991;43.566;27.820;2023-04-21T14:18:57;6.80;;;2.93;;
9904;SDS011;4991;43.566;27.820;2023-04-21T14:21:23;10.90;;;3.63;;
9904;SDS011;4991;43.566;27.820;2023-04-21T14:23:49;5.73;;;2.83;;
9904;SDS011;4991;43.566;27.820;2023-04-21T14:26:14;8.93;;;3.53;;
9904;SDS011;4991;43.566;27.820;2023-04-21T14:28:40;13.00;;;2.80;;
9904;SDS011;4991;43.566;27.820;2023-04-21T14:31:06;8.80;;;2.90;;
9904;SDS011;4991;43.566;27.820;2023-04-21T14:33:32;15.70;;;3.60;;
9904;SDS011;4991;43.566;27.820;2023-04-21T14:35:58;10.80;;;4.63;;
9904;SDS011;4991;43.566;27.820;2023-04-21T14:38:24;15.83;;;4.20;;
9904;SDS011;4991;43.566;27.820;2023-04-21T14:40:50;5.90;;;2.87;;
9904;SDS011;4991;43.566;27.820;2023-04-21T14:43:19;9.53;;;4.53;;
9904;SDS011;4991;43.566;27.820;2023-04-21T14:45:45;11.87;;;4.30;;
9904;SDS011;4991;43.566;27.820;2023-04-21T14:48:11;11.23;;;3.87;;
9904;SDS011;4991;43.566;27.820;2023-04-21T14:50:38;13.73;;;4.07;;
9904;SDS011;4991;43.566;27.820;2023-04-21T14:53:04;7.17;;;3.47;;
9904;SDS011;4991;43.566;27.820;2023-04-21T14:55:31;13.00;;;4.20;;
9904;SDS011;4991;43.566;27.820;2023-04-21T14:57:57;13.10;;;5.07;;
9904;SDS011;4991;43.566;27.820;2023-04-21T15:00:22;10.63;;;4.37;;
9904;SDS011;4991;43.566;27.820;2023-04-21T15:02:48;9.10;;;4.27;;
9904;SDS011;4991;43.566;27.820;2023-04-21T15:05:14;16.23;;;4.80;;
9904;SDS011;4991;43.566;27.820;2023-04-21T15:07:40;9.10;;;4.20;;
9904;SDS011;4991;43.566;27.820;2023-04-21T15:10:08;11.20;;;4.80;;